sensor_id;sensor_type;location;lat;lon;timestamp;P1;durP1;ratioP1;P2;durP2;ratioP2
10313;SDS011;5202;49.138;10.090;2023-05-20T00:00:12;4.87;;;3.50;;
10313;SDS011;5202;49.138;10.090;2023-05-20T00:02:41;4.03;;;3.00;;
10313;SDS011;5202;49.138;10.090;2023-05-20T00:05:10;5.43;;;3.47;;
10313;SDS011;5202;49.138;10.090;2023-05-20T00:07:39;4.77;;;3.73;;
10313;SDS011;5202;49.138;10.090;2023-05-20T00:10:08;5.63;;;3.87;;
10313;SDS011;5202;49.138;10.090;2023-05-20T00:12:37;4.63;;;3.50;;
10313;SDS011;5202;49.138;10.090;2023-05-20T00:15:10;3.63;;;3.00;;
10313;SDS011;5202;49.138;10.090;2023-05-20T00:17:38;4.77;;;3.50;;
10313;SDS011;5202;49.138;10.090;2023-05-20T00:20:07;3.80;;;3.03;;
10313;SDS011;5202;49.138;10.090;2023-05-20T00:22:37;6.10;;;3.33;;
10313;SDS011;5202;49.138;10.090;2023-05-20T00:25:05;3.70;;;3.30;;
10313;SDS011;5202;49.138;10.090;2023-05-20T00:27:35;4.67;;;3.17;;
10313;SDS011;5202;49.138;10.090;2023-05-20T00:30:03;4.63;;;3.50;;
10313;SDS011;5202;49.138;10.090;2023-05-20T00:32:33;4.60;;;3.50;;
10313;SDS011;5202;49.138;10.090;2023-05-20T00:35:01;4.47;;;3.30;;
10313;SDS011;5202;49.138;10.090;2023-05-20T00:37:30;3.87;;;3.27;;
10313;SDS011;5202;49.138;10.090;2023-05-20T00:40:00;6.07;;;3.50;;
10313;SDS011;5202;49.138;10.090;2023-05-20T00:42:35;3.77;;;3.37;;
10313;SDS011;5202;49.138;10.090;2023-05-20T00:45:03;5.80;;;3.47;;
10313;SDS011;5202;49.138;10.090;2023-05-20T00:47:33;5.67;;;3.50;;
10313;SDS011;5202;49.138;10.090;2023-05-20T00:50:03;5.13;;;3.30;;
10313;SDS011;5202;49.138;10.090;2023-05-20T00:52:32;3.93;;;3.40;;
10313;SDS011;5202;49.138;10.090;2023-05-20T00:55:04;6.13;;;3.73;;
10313;SDS011;5202;49.138;10.090;2023-05-20T00:57:32;4.07;;;3.40;;
10313;SDS011;5202;49.138;10.090;2023-05-20T01:00:03;5.32;;;3.50;;
10313;SDS011;5202;49.138;10.090;2023-05-20T01:02:34;5.00;;;3.47;;
10313;SDS011;5202;49.138;10.090;2023-05-20T01:05:03;4.80;;;3.53;;
10313;SDS011;5202;49.138;10.090;2023-05-20T01:07:32;5.87;;;3.23;;
10313;SDS011;5202;49.138;10.090;2023-05-20T01:10:01;4.60;;;3.60;;
10313;SDS011;5202;49.138;10.090;2023-05-20T01:12:33;4.80;;;3.33;;
10313;SDS011;5202;49.138;10.090;2023-05-20T01:15:05;5.27;;;3.80;;
10313;SDS011;5202;49.138;10.090;2023-05-20T01:17:37;4.83;;;3.20;;
10313;SDS011;5202;49.138;10.090;2023-05-20T01:20:11;5.43;;;3.93;;
10313;SDS011;5202;49.138;10.090;2023-05-20T01:22:47;4.50;;;3.60;;
10313;SDS011;5202;49.138;10.090;2023-05-20T01:25:16;5.97;;;3.73;;
10313;SDS011;5202;49.138;10.090;2023-05-20T01:27:44;4.67;;;3.70;;
10313;SDS011;5202;49.138;10.090;2023-05-20T01:30:14;6.13;;;3.83;;
10313;SDS011;5202;49.138;10.090;2023-05-20T01:32:46;3.77;;;3.37;;
10313;SDS011;5202;49.138;10.090;2023-05-20T01:35:17;5.90;;;3.60;;
10313;SDS011;5202;49.138;10.090;2023-05-20T01:37:50;5.30;;;3.60;;
10313;SDS011;5202;49.138;10.090;2023-05-20T01:40:20;4.27;;;3.50;;
10313;SDS011;5202;49.138;10.090;2023-05-20T01:42:50;4.07;;;3.67;;
10313;SDS011;5202;49.138;10.090;2023-05-20T01:45:22;6.13;;;4.10;;
10313;SDS011;5202;49.138;10.090;2023-05-20T01:47:51;5.47;;;3.20;;
10313;SDS011;5202;49.138;10.090;2023-05-20T01:50:20;4.07;;;3.53;;
10313;SDS011;5202;49.138;10.090;2023-05-20T01:52:49;4.27;;;3.87;;
10313;SDS011;5202;49.138;10.090;2023-05-20T01:55:17;4.67;;;3.53;;
10313;SDS011;5202;49.138;10.090;2023-05-20T01:57:46;5.57;;;3.93;;
10313;SDS011;5202;49.138;10.090;2023-05-20T02:00:14;5.43;;;3.60;;
10313;SDS011;5202;49.138;10.090;2023-05-20T02:02:43;5.93;;;3.77;;
10313;SDS011;5202;49.138;10.090;2023-05-20T02:05:12;7.77;;;4.00;;
10313;SDS011;5202;49.138;10.090;2023-05-20T02:07:45;6.20;;;3.83;;
10313;SDS011;5202;49.138;10.090;2023-05-20T02:10:14;6.37;;;4.07;;
10313;SDS011;5202;49.138;10.090;2023-05-20T02:12:44;4.20;;;3.80;;
10313;SDS011;5202;49.138;10.090;2023-05-20T02:15:14;5.37;;;3.90;;
10313;SDS011;5202;49.138;10.090;2023-05-20T02:17:43;4.47;;;3.80;;
10313;SDS011;5202;49.138;10.090;2023-05-20T02:20:13;6.27;;;4.13;;
10313;SDS011;5202;49.138;10.090;2023-05-20T02:22:41;7.87;;;3.63;;
10313;SDS011;5202;49.138;10.090;2023-05-20T02:25:10;4.73;;;3.97;;
10313;SDS011;5202;49.138;10.090;2023-05-20T02:27:40;4.90;;;3.73;;
10313;SDS011;5202;49.138;10.090;2023-05-20T02:30:08;8.37;;;4.07;;
10313;SDS011;5202;49.138;10.090;2023-05-20T02:32:37;5.20;;;3.87;;
10313;SDS011;5202;49.138;10.090;2023-05-20T02:35:06;5.93;;;3.80;;
10313;SDS011;5202;49.138;10.090;2023-05-20T02:37:35;6.70;;;3.77;;
10313;SDS011;5202;49.138;10.090;2023-05-20T02:40:05;6.10;;;4.67;;
10313;SDS011;5202;49.138;10.090;2023-05-20T02:42:37;5.03;;;4.17;;
10313;SDS011;5202;49.138;10.090;2023-05-20T02:45:10;4.60;;;3.83;;
10313;SDS011;5202;49.138;10.090;2023-05-20T02:47:38;4.33;;;3.70;;
10313;SDS011;5202;49.138;10.090;2023-05-20T02:50:07;4.63;;;3.40;;
10313;SDS011;5202;49.138;10.090;2023-05-20T02:52:36;4.27;;;3.60;;
10313;SDS011;5202;49.138;10.090;2023-05-20T02:55:05;4.97;;;3.77;;
10313;SDS011;5202;49.138;10.090;2023-05-20T02:57:35;5.87;;;4.00;;
10313;SDS011;5202;49.138;10.090;2023-05-20T03:00:07;5.50;;;3.73;;
10313;SDS011;5202;49.138;10.090;2023-05-20T03:02:37;5.27;;;4.00;;
10313;SDS011;5202;49.138;10.090;2023-05-20T03:05:06;6.57;;;4.03;;
10313;SDS011;5202;49.138;10.090;2023-05-20T03:07:36;5.83;;;4.50;;
10313;SDS011;5202;49.138;10.090;2023-05-20T03:10:05;7.23;;;3.70;;
10313;SDS011;5202;49.138;10.090;2023-05-20T03:12:37;5.63;;;4.23;;
10313;SDS011;5202;49.138;10.090;2023-05-20T03:15:09;4.87;;;3.87;;
10313;SDS011;5202;49.138;10.090;2023-05-20T03:17:38;5.37;;;4.10;;
10313;SDS011;5202;49.138;10.090;2023-05-20T03:20:07;5.83;;;4.03;;
10313;SDS011;5202;49.138;10.090;2023-05-20T03:22:39;6.10;;;4.17;;
10313;SDS011;5202;49.138;10.090;2023-05-20T03:25:07;4.17;;;3.63;;
10313;SDS011;5202;49.138;10.090;2023-05-20T03:27:37;7.07;;;3.90;;
10313;SDS011;5202;49.138;10.090;2023-05-20T03:30:07;9.10;;;4.53;;
10313;SDS011;5202;49.138;10.090;2023-05-20T03:32:38;6.10;;;4.57;;
10313;SDS011;5202;49.138;10.090;2023-05-20T03:35:07;7.30;;;4.37;;
10313;SDS011;5202;49.138;10.090;2023-05-20T03:37:36;7.87;;;4.33;;
10313;SDS011;5202;49.138;10.090;2023-05-20T03:40:05;6.27;;;4.00;;
10313;SDS011;5202;49.138;10.090;2023-05-20T03:42:36;4.50;;;4.00;;
10313;SDS011;5202;49.138;10.090;2023-05-20T03:45:06;6.80;;;4.03;;
10313;SDS011;5202;49.138;10.090;2023-05-20T03:47:45;5.67;;;4.67;;
10313;SDS011;5202;49.138;10.090;2023-05-20T03:50:16;6.73;;;4.30;;
10313;SDS011;5202;49.138;10.090;2023-05-20T03:52:45;6.67;;;4.33;;
10313;SDS011;5202;49.138;10.090;2023-05-20T03:55:15;6.13;;;4.50;;
10313;SDS011;5202;49.138;10.090;2023-05-20T03:57:46;7.90;;;4.80;;
10313;SDS011;5202;49.138;10.090;2023-05-20T04:00:16;5.53;;;4.50;;
10313;SDS011;5202;49.138;10.090;2023-05-20T04:02:44;6.10;;;5.07;;
10313;SDS011;5202;49.138;10.090;2023-05-20T04:05:17;6.27;;;4.80;;
10313;SDS011;5202;49.138;10.090;2023-05-20T04:08:15;6.00;;;4.93;;
10313;SDS011;5202;49.138;10.090;2023-05-20T04:10:45;6.43;;;5.03;;
10313;SDS011;5202;49.138;10.090;2023-05-20T04:13:13;7.87;;;5.00;;
10313;SDS011;5202;49.138;10.090;2023-05-20T04:15:48;7.87;;;4.87;;
10313;SDS011;5202;49.138;10.090;2023-05-20T04:18:17;8.47;;;5.60;;
10313;SDS011;5202;49.138;10.090;2023-05-20T04:20:45;5.80;;;4.97;;
10313;SDS011;5202;49.138;10.090;2023-05-20T04:23:14;7.90;;;5.10;;
10313;SDS011;5202;49.138;10.090;2023-05-20T04:25:43;7.13;;;5.03;;
10313;SDS011;5202;49.138;10.090;2023-05-20T04:28:11;6.33;;;5.03;;
10313;SDS011;5202;49.138;10.090;2023-05-20T04:30:42;7.67;;;5.10;;
10313;SDS011;5202;49.138;10.090;2023-05-20T04:33:12;5.63;;;4.60;;
10313;SDS011;5202;49.138;10.090;2023-05-20T04:35:41;6.53;;;5.30;;
10313;SDS011;5202;49.138;10.090;2023-05-20T04:38:10;8.57;;;5.20;;
10313;SDS011;5202;49.138;10.090;2023-05-20T04:40:38;7.77;;;5.30;;
10313;SDS011;5202;49.138;10.090;2023-05-20T04:43:07;8.40;;;5.10;;
10313;SDS011;5202;49.138;10.090;2023-05-20T04:45:36;7.90;;;5.70;;
10313;SDS011;5202;49.138;10.090;2023-05-20T04:48:05;6.77;;;5.30;;
10313;SDS011;5202;49.138;10.090;2023-05-20T04:50:37;6.43;;;5.70;;
10313;SDS011;5202;49.138;10.090;2023-05-20T04:53:05;7.57;;;5.90;;
10313;SDS011;5202;49.138;10.090;2023-05-20T04:55:34;6.53;;;5.03;;
10313;SDS011;5202;49.138;10.090;2023-05-20T04:58:04;7.77;;;6.07;;
10313;SDS011;5202;49.138;10.090;2023-05-20T05:00:33;6.37;;;5.73;;
10313;SDS011;5202;49.138;10.090;2023-05-20T05:03:02;6.60;;;5.43;;
10313;SDS011;5202;49.138;10.090;2023-05-20T05:05:30;6.97;;;5.70;;
10313;SDS011;5202;49.138;10.090;2023-05-20T05:08:00;8.53;;;5.40;;
10313;SDS011;5202;49.138;10.090;2023-05-20T05:10:30;6.67;;;5.80;;
10313;SDS011;5202;49.138;10.090;2023-05-20T05:12:58;9.10;;;6.07;;
10313;SDS011;5202;49.138;10.090;2023-05-20T05:15:27;8.93;;;5.70;;
10313;SDS011;5202;49.138;10.090;2023-05-20T05:17:56;7.63;;;6.40;;
10313;SDS011;5202;49.138;10.090;2023-05-20T05:20:24;9.93;;;6.40;;
10313;SDS011;5202;49.138;10.090;2023-05-20T05:22:52;7.87;;;5.93;;
10313;SDS011;5202;49.138;10.090;2023-05-20T05:25:23;6.87;;;5.87;;
10313;SDS011;5202;49.138;10.090;2023-05-20T05:27:51;8.73;;;5.67;;
10313;SDS011;5202;49.138;10.090;2023-05-20T05:30:21;10.70;;;5.90;;
10313;SDS011;5202;49.138;10.090;2023-05-20T05:32:50;6.97;;;6.03;;
10313;SDS011;5202;49.138;10.090;2023-05-20T05:35:18;6.77;;;5.97;;
10313;SDS011;5202;49.138;10.090;2023-05-20T05:37:47;8.20;;;6.37;;
10313;SDS011;5202;49.138;10.090;2023-05-20T05:40:15;6.63;;;5.93;;
10313;SDS011;5202;49.138;10.090;2023-05-20T05:42:46;8.27;;;6.47;;
10313;SDS011;5202;49.138;10.090;2023-05-20T05:45:15;7.63;;;6.50;;
10313;SDS011;5202;49.138;10.090;2023-05-20T05:47:43;7.97;;;6.27;;
10313;SDS011;5202;49.138;10.090;2023-05-20T05:50:13;7.50;;;6.03;;
10313;SDS011;5202;49.138;10.090;2023-05-20T05:52:41;7.50;;;6.35;;
10313;SDS011;5202;49.138;10.090;2023-05-20T05:55:10;9.02;;;6.05;;
10313;SDS011;5202;49.138;10.090;2023-05-20T05:57:39;8.00;;;7.17;;
10313;SDS011;5202;49.138;10.090;2023-05-20T06:00:11;8.30;;;6.13;;
10313;SDS011;5202;49.138;10.090;2023-05-20T06:02:44;6.60;;;5.70;;
10313;SDS011;5202;49.138;10.090;2023-05-20T06:05:25;7.37;;;6.03;;
10313;SDS011;5202;49.138;10.090;2023-05-20T06:07:57;8.13;;;6.65;;
10313;SDS011;5202;49.138;10.090;2023-05-20T06:10:25;7.47;;;6.18;;
10313;SDS011;5202;49.138;10.090;2023-05-20T06:12:54;8.50;;;6.40;;
10313;SDS011;5202;49.138;10.090;2023-05-20T06:15:24;6.75;;;6.05;;
10313;SDS011;5202;49.138;10.090;2023-05-20T06:17:53;7.20;;;5.90;;
10313;SDS011;5202;49.138;10.090;2023-05-20T06:20:21;7.25;;;6.00;;
10313;SDS011;5202;49.138;10.090;2023-05-20T06:22:50;6.45;;;5.78;;
10313;SDS011;5202;49.138;10.090;2023-05-20T06:25:19;7.45;;;6.20;;
10313;SDS011;5202;49.138;10.090;2023-05-20T06:27:48;9.88;;;6.22;;
10313;SDS011;5202;49.138;10.090;2023-05-20T06:30:18;7.13;;;6.10;;
10313;SDS011;5202;49.138;10.090;2023-05-20T06:32:48;7.18;;;5.78;;
10313;SDS011;5202;49.138;10.090;2023-05-20T06:35:17;7.63;;;6.03;;
10313;SDS011;5202;49.138;10.090;2023-05-20T06:37:45;7.10;;;6.25;;
10313;SDS011;5202;49.138;10.090;2023-05-20T06:40:14;9.48;;;6.22;;
10313;SDS011;5202;49.138;10.090;2023-05-20T06:42:43;7.03;;;6.22;;
10313;SDS011;5202;49.138;10.090;2023-05-20T06:45:12;9.48;;;6.57;;
10313;SDS011;5202;49.138;10.090;2023-05-20T06:47:44;7.32;;;6.03;;
10313;SDS011;5202;49.138;10.090;2023-05-20T06:50:14;6.82;;;5.75;;
10313;SDS011;5202;49.138;10.090;2023-05-20T06:52:43;7.18;;;6.22;;
10313;SDS011;5202;49.138;10.090;2023-05-20T06:55:12;7.95;;;5.90;;
10313;SDS011;5202;49.138;10.090;2023-05-20T06:57:41;9.48;;;6.00;;
10313;SDS011;5202;49.138;10.090;2023-05-20T07:00:11;9.02;;;6.22;;
10313;SDS011;5202;49.138;10.090;2023-05-20T07:02:41;8.60;;;6.10;;
10313;SDS011;5202;49.138;10.090;2023-05-20T07:05:11;8.25;;;6.32;;
10313;SDS011;5202;49.138;10.090;2023-05-20T07:07:41;6.82;;;6.13;;
10313;SDS011;5202;49.138;10.090;2023-05-20T07:10:09;7.80;;;6.25;;
10313;SDS011;5202;49.138;10.090;2023-05-20T07:12:38;9.88;;;6.18;;
10313;SDS011;5202;49.138;10.090;2023-05-20T07:15:06;6.53;;;5.93;;
10313;SDS011;5202;49.138;10.090;2023-05-20T07:17:36;8.32;;;6.35;;
10313;SDS011;5202;49.138;10.090;2023-05-20T07:20:04;10.65;;;5.93;;
10313;SDS011;5202;49.138;10.090;2023-05-20T07:22:34;8.40;;;5.97;;
10313;SDS011;5202;49.138;10.090;2023-05-20T07:25:11;8.00;;;5.88;;
10313;SDS011;5202;49.138;10.090;2023-05-20T07:27:39;6.57;;;5.53;;
10313;SDS011;5202;49.138;10.090;2023-05-20T07:30:08;6.97;;;5.95;;
10313;SDS011;5202;49.138;10.090;2023-05-20T07:32:38;7.90;;;6.05;;
10313;SDS011;5202;49.138;10.090;2023-05-20T07:35:07;7.25;;;5.88;;
10313;SDS011;5202;49.138;10.090;2023-05-20T07:37:36;7.90;;;5.72;;
10313;SDS011;5202;49.138;10.090;2023-05-20T07:40:05;10.68;;;6.65;;
10313;SDS011;5202;49.138;10.090;2023-05-20T07:42:38;8.25;;;5.80;;
10313;SDS011;5202;49.138;10.090;2023-05-20T07:45:08;10.07;;;6.35;;
10313;SDS011;5202;49.138;10.090;2023-05-20T07:47:38;6.03;;;5.43;;
10313;SDS011;5202;49.138;10.090;2023-05-20T07:50:07;7.18;;;6.38;;
10313;SDS011;5202;49.138;10.090;2023-05-20T07:52:37;7.68;;;6.07;;
10313;SDS011;5202;49.138;10.090;2023-05-20T07:55:08;6.68;;;5.18;;
10313;SDS011;5202;49.138;10.090;2023-05-20T07:57:38;7.28;;;6.05;;
10313;SDS011;5202;49.138;10.090;2023-05-20T08:00:10;8.13;;;5.80;;
10313;SDS011;5202;49.138;10.090;2023-05-20T08:02:42;7.28;;;5.72;;
10313;SDS011;5202;49.138;10.090;2023-05-20T08:05:18;7.18;;;5.20;;
10313;SDS011;5202;49.138;10.090;2023-05-20T08:07:48;6.80;;;5.80;;
10313;SDS011;5202;49.138;10.090;2023-05-20T08:10:17;9.20;;;6.07;;
10313;SDS011;5202;49.138;10.090;2023-05-20T08:12:47;6.45;;;5.70;;
10313;SDS011;5202;49.138;10.090;2023-05-20T08:15:16;7.55;;;6.05;;
10313;SDS011;5202;49.138;10.090;2023-05-20T08:17:45;7.40;;;5.45;;
10313;SDS011;5202;49.138;10.090;2023-05-20T08:20:14;6.80;;;6.07;;
10313;SDS011;5202;49.138;10.090;2023-05-20T08:22:42;6.55;;;5.22;;
10313;SDS011;5202;49.138;10.090;2023-05-20T08:25:10;6.10;;;5.40;;
10313;SDS011;5202;49.138;10.090;2023-05-20T08:27:39;7.63;;;4.90;;
10313;SDS011;5202;49.138;10.090;2023-05-20T08:30:09;7.07;;;5.90;;
10313;SDS011;5202;49.138;10.090;2023-05-20T08:32:38;7.30;;;5.47;;
10313;SDS011;5202;49.138;10.090;2023-05-20T08:35:06;6.78;;;5.55;;
10313;SDS011;5202;49.138;10.090;2023-05-20T08:37:35;5.97;;;5.38;;
10313;SDS011;5202;49.138;10.090;2023-05-20T08:40:04;7.00;;;5.78;;
10313;SDS011;5202;49.138;10.090;2023-05-20T08:42:35;12.88;;;5.63;;
10313;SDS011;5202;49.138;10.090;2023-05-20T08:45:10;8.43;;;6.43;;
10313;SDS011;5202;49.138;10.090;2023-05-20T08:47:40;5.97;;;5.38;;
10313;SDS011;5202;49.138;10.090;2023-05-20T08:50:10;7.72;;;5.38;;
10313;SDS011;5202;49.138;10.090;2023-05-20T08:52:41;6.22;;;5.28;;
10313;SDS011;5202;49.138;10.090;2023-05-20T08:55:16;9.13;;;5.75;;
10313;SDS011;5202;49.138;10.090;2023-05-20T08:57:52;5.82;;;5.07;;
10313;SDS011;5202;49.138;10.090;2023-05-20T09:00:22;7.15;;;5.82;;
10313;SDS011;5202;49.138;10.090;2023-05-20T09:02:54;6.75;;;6.07;;
10313;SDS011;5202;49.138;10.090;2023-05-20T09:05:26;7.20;;;5.35;;
10313;SDS011;5202;49.138;10.090;2023-05-20T09:08:03;5.75;;;5.15;;
10313;SDS011;5202;49.138;10.090;2023-05-20T09:10:33;6.30;;;5.65;;
10313;SDS011;5202;49.138;10.090;2023-05-20T09:13:02;8.60;;;5.47;;
10313;SDS011;5202;49.138;10.090;2023-05-20T09:15:33;6.50;;;5.75;;
10313;SDS011;5202;49.138;10.090;2023-05-20T09:18:04;6.05;;;5.20;;
10313;SDS011;5202;49.138;10.090;2023-05-20T09:20:35;6.97;;;5.40;;
10313;SDS011;5202;49.138;10.090;2023-05-20T09:23:07;9.10;;;5.55;;
10313;SDS011;5202;49.138;10.090;2023-05-20T09:25:36;7.38;;;5.18;;
10313;SDS011;5202;49.138;10.090;2023-05-20T09:28:05;6.55;;;5.65;;
10313;SDS011;5202;49.138;10.090;2023-05-20T09:30:36;6.90;;;5.57;;
10313;SDS011;5202;49.138;10.090;2023-05-20T09:33:04;8.30;;;5.32;;
10313;SDS011;5202;49.138;10.090;2023-05-20T09:35:35;6.40;;;5.70;;
10313;SDS011;5202;49.138;10.090;2023-05-20T09:38:04;9.40;;;5.95;;
10313;SDS011;5202;49.138;10.090;2023-05-20T09:40:33;6.07;;;5.45;;
10313;SDS011;5202;49.138;10.090;2023-05-20T09:43:06;10.20;;;6.15;;
10313;SDS011;5202;49.138;10.090;2023-05-20T09:45:38;6.18;;;5.57;;
10313;SDS011;5202;49.138;10.090;2023-05-20T09:48:06;7.43;;;5.40;;
10313;SDS011;5202;49.138;10.090;2023-05-20T09:50:38;6.68;;;5.47;;
10313;SDS011;5202;49.138;10.090;2023-05-20T09:53:08;6.20;;;5.10;;
10313;SDS011;5202;49.138;10.090;2023-05-20T09:55:38;6.70;;;5.00;;
10313;SDS011;5202;49.138;10.090;2023-05-20T09:58:07;6.93;;;5.35;;
10313;SDS011;5202;49.138;10.090;2023-05-20T10:00:43;6.15;;;5.35;;
10313;SDS011;5202;49.138;10.090;2023-05-20T10:03:11;6.40;;;4.80;;
10313;SDS011;5202;49.138;10.090;2023-05-20T10:05:40;5.75;;;4.80;;
10313;SDS011;5202;49.138;10.090;2023-05-20T10:08:26;6.35;;;5.20;;
10313;SDS011;5202;49.138;10.090;2023-05-20T10:11:12;6.22;;;5.47;;
10313;SDS011;5202;49.138;10.090;2023-05-20T10:13:59;6.57;;;5.13;;
10313;SDS011;5202;49.138;10.090;2023-05-20T10:16:49;5.18;;;4.68;;
10313;SDS011;5202;49.138;10.090;2023-05-20T10:19:25;6.15;;;4.50;;
10313;SDS011;5202;49.138;10.090;2023-05-20T10:21:57;5.40;;;4.85;;
10313;SDS011;5202;49.138;10.090;2023-05-20T10:24:30;5.03;;;4.57;;
10313;SDS011;5202;49.138;10.090;2023-05-20T10:27:00;6.28;;;4.97;;
10313;SDS011;5202;49.138;10.090;2023-05-20T10:29:40;5.00;;;4.50;;
10313;SDS011;5202;49.138;10.090;2023-05-20T10:32:22;9.02;;;4.47;;
10313;SDS011;5202;49.138;10.090;2023-05-20T10:34:52;5.05;;;4.55;;
10313;SDS011;5202;49.138;10.090;2023-05-20T10:37:28;5.65;;;4.40;;
10313;SDS011;5202;49.138;10.090;2023-05-20T10:40:05;4.47;;;4.07;;
10313;SDS011;5202;49.138;10.090;2023-05-20T10:42:35;4.38;;;3.97;;
10313;SDS011;5202;49.138;10.090;2023-05-20T10:45:03;5.97;;;4.75;;
10313;SDS011;5202;49.138;10.090;2023-05-20T10:47:35;5.65;;;4.20;;
10313;SDS011;5202;49.138;10.090;2023-05-20T10:50:04;6.75;;;4.53;;
10313;SDS011;5202;49.138;10.090;2023-05-20T10:52:35;6.85;;;4.43;;
10313;SDS011;5202;49.138;10.090;2023-05-20T10:55:05;5.28;;;4.28;;
10313;SDS011;5202;49.138;10.090;2023-05-20T10:57:34;6.38;;;4.65;;
10313;SDS011;5202;49.138;10.090;2023-05-20T11:00:03;6.05;;;4.05;;
10313;SDS011;5202;49.138;10.090;2023-05-20T11:02:37;5.47;;;4.47;;
10313;SDS011;5202;49.138;10.090;2023-05-20T11:05:08;7.03;;;4.35;;
10313;SDS011;5202;49.138;10.090;2023-05-20T11:07:39;5.45;;;4.40;;
10313;SDS011;5202;49.138;10.090;2023-05-20T11:10:08;5.78;;;3.90;;
10313;SDS011;5202;49.138;10.090;2023-05-20T11:12:38;5.28;;;3.97;;
10313;SDS011;5202;49.138;10.090;2023-05-20T11:15:07;4.90;;;3.92;;
10313;SDS011;5202;49.138;10.090;2023-05-20T11:17:51;5.57;;;3.80;;
10313;SDS011;5202;49.138;10.090;2023-05-20T11:20:21;5.82;;;4.05;;
10313;SDS011;5202;49.138;10.090;2023-05-20T11:22:50;5.22;;;4.15;;
10313;SDS011;5202;49.138;10.090;2023-05-20T11:25:19;4.72;;;4.22;;
10313;SDS011;5202;49.138;10.090;2023-05-20T11:27:49;7.72;;;4.43;;
10313;SDS011;5202;49.138;10.090;2023-05-20T11:30:18;4.25;;;3.85;;
10313;SDS011;5202;49.138;10.090;2023-05-20T11:32:56;6.25;;;4.82;;
10313;SDS011;5202;49.138;10.090;2023-05-20T11:35:26;4.10;;;3.70;;
10313;SDS011;5202;49.138;10.090;2023-05-20T11:38:00;6.00;;;4.30;;
10313;SDS011;5202;49.138;10.090;2023-05-20T11:40:32;4.75;;;4.20;;
10313;SDS011;5202;49.138;10.090;2023-05-20T11:43:14;4.80;;;3.88;;
10313;SDS011;5202;49.138;10.090;2023-05-20T11:45:45;5.53;;;3.80;;
10313;SDS011;5202;49.138;10.090;2023-05-20T11:48:15;6.63;;;3.60;;
10313;SDS011;5202;49.138;10.090;2023-05-20T11:50:46;4.10;;;3.70;;
10313;SDS011;5202;49.138;10.090;2023-05-20T11:53:15;4.70;;;4.20;;
10313;SDS011;5202;49.138;10.090;2023-05-20T11:55:45;5.53;;;4.28;;
10313;SDS011;5202;49.138;10.090;2023-05-20T11:58:17;4.35;;;3.70;;
10313;SDS011;5202;49.138;10.090;2023-05-20T12:00:47;4.35;;;3.67;;
10313;SDS011;5202;49.138;10.090;2023-05-20T12:03:28;5.60;;;4.43;;
10313;SDS011;5202;49.138;10.090;2023-05-20T12:05:59;5.60;;;3.70;;
10313;SDS011;5202;49.138;10.090;2023-05-20T12:08:30;6.65;;;4.28;;
10313;SDS011;5202;49.138;10.090;2023-05-20T12:10:58;4.90;;;3.95;;
10313;SDS011;5202;49.138;10.090;2023-05-20T12:13:26;10.43;;;4.35;;
10313;SDS011;5202;49.138;10.090;2023-05-20T12:15:54;4.95;;;3.92;;
10313;SDS011;5202;49.138;10.090;2023-05-20T12:18:23;4.35;;;3.60;;
10313;SDS011;5202;49.138;10.090;2023-05-20T12:20:52;4.18;;;3.78;;
10313;SDS011;5202;49.138;10.090;2023-05-20T12:23:21;4.68;;;4.10;;
10313;SDS011;5202;49.138;10.090;2023-05-20T12:25:49;4.18;;;3.65;;
10313;SDS011;5202;49.138;10.090;2023-05-20T12:28:18;5.28;;;3.70;;
10313;SDS011;5202;49.138;10.090;2023-05-20T12:30:46;9.23;;;4.28;;
10313;SDS011;5202;49.138;10.090;2023-05-20T12:33:14;3.83;;;3.50;;
10313;SDS011;5202;49.138;10.090;2023-05-20T12:35:43;5.80;;;3.75;;
10313;SDS011;5202;49.138;10.090;2023-05-20T12:38:13;4.88;;;3.40;;
10313;SDS011;5202;49.138;10.090;2023-05-20T12:40:41;6.45;;;3.80;;
10313;SDS011;5202;49.138;10.090;2023-05-20T12:43:10;5.72;;;3.83;;
10313;SDS011;5202;49.138;10.090;2023-05-20T12:45:38;4.50;;;3.90;;
10313;SDS011;5202;49.138;10.090;2023-05-20T12:48:06;3.78;;;3.38;;
10313;SDS011;5202;49.138;10.090;2023-05-20T12:50:35;4.72;;;3.58;;
10313;SDS011;5202;49.138;10.090;2023-05-20T12:53:03;4.07;;;3.30;;
10313;SDS011;5202;49.138;10.090;2023-05-20T12:55:33;4.25;;;3.67;;
10313;SDS011;5202;49.138;10.090;2023-05-20T12:58:01;4.22;;;3.50;;
10313;SDS011;5202;49.138;10.090;2023-05-20T13:00:29;7.57;;;3.83;;
10313;SDS011;5202;49.138;10.090;2023-05-20T13:02:58;4.18;;;3.78;;
10313;SDS011;5202;49.138;10.090;2023-05-20T13:05:27;4.75;;;3.70;;
10313;SDS011;5202;49.138;10.090;2023-05-20T13:07:55;6.70;;;3.88;;
10313;SDS011;5202;49.138;10.090;2023-05-20T13:10:23;3.85;;;3.53;;
10313;SDS011;5202;49.138;10.090;2023-05-20T13:12:55;6.03;;;4.07;;
10313;SDS011;5202;49.138;10.090;2023-05-20T13:15:23;4.65;;;3.97;;
10313;SDS011;5202;49.138;10.090;2023-05-20T13:17:51;5.00;;;3.80;;
10313;SDS011;5202;49.138;10.090;2023-05-20T13:20:20;4.10;;;3.70;;
10313;SDS011;5202;49.138;10.090;2023-05-20T13:22:49;4.80;;;4.05;;
10313;SDS011;5202;49.138;10.090;2023-05-20T13:25:17;5.93;;;3.72;;
10313;SDS011;5202;49.138;10.090;2023-05-20T13:27:46;4.70;;;4.22;;
10313;SDS011;5202;49.138;10.090;2023-05-20T13:30:15;6.05;;;4.22;;
10313;SDS011;5202;49.138;10.090;2023-05-20T13:32:44;5.47;;;3.63;;
10313;SDS011;5202;49.138;10.090;2023-05-20T13:35:12;4.88;;;4.20;;
10313;SDS011;5202;49.138;10.090;2023-05-20T13:37:42;5.22;;;4.18;;
10313;SDS011;5202;49.138;10.090;2023-05-20T13:40:11;3.88;;;3.55;;
10313;SDS011;5202;49.138;10.090;2023-05-20T13:42:39;5.47;;;4.18;;
10313;SDS011;5202;49.138;10.090;2023-05-20T13:45:08;7.70;;;3.55;;
10313;SDS011;5202;49.138;10.090;2023-05-20T13:47:39;4.75;;;3.60;;
10313;SDS011;5202;49.138;10.090;2023-05-20T13:50:07;5.05;;;3.92;;
10313;SDS011;5202;49.138;10.090;2023-05-20T13:52:37;4.50;;;4.10;;
10313;SDS011;5202;49.138;10.090;2023-05-20T13:55:06;4.32;;;3.90;;
10313;SDS011;5202;49.138;10.090;2023-05-20T13:57:35;5.13;;;4.28;;
10313;SDS011;5202;49.138;10.090;2023-05-20T14:00:03;5.43;;;3.92;;
10313;SDS011;5202;49.138;10.090;2023-05-20T14:02:34;4.20;;;3.17;;
10313;SDS011;5202;49.138;10.090;2023-05-20T14:05:04;5.90;;;3.72;;
10313;SDS011;5202;49.138;10.090;2023-05-20T14:07:34;5.78;;;4.05;;
10313;SDS011;5202;49.138;10.090;2023-05-20T14:10:02;4.47;;;3.85;;
10313;SDS011;5202;49.138;10.090;2023-05-20T14:12:32;4.20;;;3.63;;
10313;SDS011;5202;49.138;10.090;2023-05-20T14:15:00;3.60;;;3.20;;
10313;SDS011;5202;49.138;10.090;2023-05-20T14:17:28;7.70;;;3.72;;
10313;SDS011;5202;49.138;10.090;2023-05-20T14:19:57;6.00;;;4.03;;
10313;SDS011;5202;49.138;10.090;2023-05-20T14:22:27;4.68;;;3.50;;
10313;SDS011;5202;49.138;10.090;2023-05-20T14:24:55;5.80;;;3.70;;
10313;SDS011;5202;49.138;10.090;2023-05-20T14:27:24;6.75;;;3.97;;
10313;SDS011;5202;49.138;10.090;2023-05-20T14:29:52;8.27;;;3.97;;
10313;SDS011;5202;49.138;10.090;2023-05-20T14:32:21;9.32;;;4.10;;
10313;SDS011;5202;49.138;10.090;2023-05-20T14:34:49;6.40;;;3.88;;
10313;SDS011;5202;49.138;10.090;2023-05-20T14:37:19;5.22;;;3.95;;
10313;SDS011;5202;49.138;10.090;2023-05-20T14:39:49;5.25;;;4.25;;
10313;SDS011;5202;49.138;10.090;2023-05-20T14:42:17;7.55;;;4.22;;
10313;SDS011;5202;49.138;10.090;2023-05-20T14:44:46;5.07;;;4.10;;
10313;SDS011;5202;49.138;10.090;2023-05-20T14:47:15;5.45;;;4.45;;
10313;SDS011;5202;49.138;10.090;2023-05-20T14:49:47;5.13;;;4.40;;
10313;SDS011;5202;49.138;10.090;2023-05-20T14:52:15;7.07;;;4.70;;
10313;SDS011;5202;49.138;10.090;2023-05-20T14:54:44;6.82;;;4.82;;
10313;SDS011;5202;49.138;10.090;2023-05-20T14:57:14;5.75;;;4.78;;
10313;SDS011;5202;49.138;10.090;2023-05-20T14:59:43;5.53;;;4.75;;
10313;SDS011;5202;49.138;10.090;2023-05-20T15:02:11;6.55;;;5.28;;
10313;SDS011;5202;49.138;10.090;2023-05-20T15:04:41;7.03;;;5.05;;